Time;durP1;ratioP1;P1;durP2;ratioP2;P2;SDS_P1;SDS_P2;PMS_P1;PMS_P2;Temp;Humidity;BMP_temperature;BMP_pressure;BME280_temperature;BME280_humidity;BME280_pressure;Samples;Min_cycle;Max_cycle;Signal;HPM_P1;HPM_P2
2023/01/07 00:01:05;;;;;;;2.10;1.90;;;22.70;50.80;;;;;;5049444;28;20526;-57
2023/01/07 00:03:32;;;;;;;2.08;1.60;;;22.60;50.90;;;;;;5081985;28;20099;-57
2023/01/07 00:06:01;;;;;;;1.60;1.50;;;22.60;50.80;;;;;;5050312;28;20390;-57
2023/01/07 00:08:32;;;;;;;1.67;1.52;;;22.60;50.80;;;;;;5049654;28;20048;-56
2023/01/07 00:11:05;;;;;;;;;;;22.60;50.90;;;;;;5082309;28;20120;-58
2023/01/07 00:13:32;;;;;;;2.05;1.92;;;22.50;50.80;;;;;;5050369;28;19920;-57
2023/01/07 00:15:58;;;;;;;2.10;1.73;;;22.50;51.70;;;;;;5046927;28;20040;-57
2023/01/07 00:18:24;;;;;;;1.88;1.70;;;22.50;51.00;;;;;;5078351;28;20056;-59
2023/01/07 00:20:50;;;;;;;1.80;1.70;;;22.50;51.00;;;;;;5049349;28;20144;-58
2023/01/07 00:23:16;;;;;;;2.00;1.58;;;22.40;50.90;;;;;;5048281;28;20131;-56
2023/01/07 00:25:42;;;;;;;2.53;1.65;;;22.40;50.90;;;;;;5051748;28;20137;-58
2023/01/07 00:28:07;;;;;;;1.70;1.60;;;22.40;50.90;;;;;;5048125;28;20113;-59
2023/01/07 00:30:33;;;;;;;1.50;1.40;;;22.40;50.90;;;;;;5047732;28;20481;-59
2023/01/07 00:33:03;;;;;;;1.58;1.48;;;22.40;51.00;;;;;;5050948;28;20049;-57
2023/01/07 00:35:30;;;;;;;1.45;1.35;;;22.40;51.00;;;;;;5079868;28;20041;-57
2023/01/07 00:37:56;;;;;;;1.50;1.40;;;22.40;51.10;;;;;;5047828;28;20052;-57
2023/01/07 00:40:22;;;;;;;1.60;1.50;;;22.30;51.10;;;;;;5050185;28;20045;-57
2023/01/07 00:42:54;;;;;;;1.75;1.50;;;22.30;51.10;;;;;;5048768;28;20496;-57
2023/01/07 00:45:21;;;;;;;1.42;1.33;;;22.30;51.10;;;;;;5049736;28;20388;-58
2023/01/07 00:47:47;;;;;;;1.38;1.27;;;22.30;51.10;;;;;;5050609;28;20058;-59
2023/01/07 00:50:12;;;;;;;1.48;1.38;;;22.30;51.10;;;;;;5049607;28;20444;-58
2023/01/07 00:52:38;;;;;;;1.30;1.20;;;22.30;51.10;;;;;;5049588;28;20064;-57
2023/01/07 00:55:04;;;;;;;1.35;1.25;;;22.20;51.10;;;;;;5050449;28;20041;-56
2023/01/07 00:57:30;;;;;;;1.50;1.40;;;22.20;51.20;;;;;;5048702;28;20056;-57
2023/01/07 00:59:55;;;;;;;1.48;1.30;;;22.20;51.20;;;;;;5050543;28;20045;-56
2023/01/07 01:02:21;;;;;;;1.33;1.23;;;22.20;51.30;;;;;;5055137;28;20292;-57
2023/01/07 01:04:47;;;;;;;1.30;1.20;;;22.20;51.30;;;;;;5051862;28;20056;-57
2023/01/07 01:07:12;;;;;;;1.40;1.30;;;22.20;51.30;;;;;;5047974;28;20899;-58
2023/01/07 01:09:38;;;;;;;1.85;1.20;;;22.10;51.30;;;;;;5050888;28;20136;-57
2023/01/07 01:12:04;;;;;;;1.30;1.20;;;22.10;51.30;;;;;;5049967;28;20145;-57
2023/01/07 01:14:30;;;;;;;1.20;1.00;;;22.10;51.30;;;;;;5048485;28;20088;-57
2023/01/07 01:16:55;;;;;;;1.58;1.48;;;22.10;51.30;;;;;;5046035;28;20570;-57
2023/01/07 01:19:21;;;;;;;1.30;1.20;;;22.10;51.40;;;;;;5081453;28;20052;-58
2023/01/07 01:21:46;;;;;;;1.20;1.10;;;22.10;51.40;;;;;;5048208;28;20036;-57
2023/01/07 01:24:13;;;;;;;1.23;1.13;;;22.00;51.40;;;;;;5050079;28;20045;-58
2023/01/07 01:26:38;;;;;;;1.40;1.30;;;22.00;51.30;;;;;;5049117;28;20098;-56
2023/01/07 01:29:04;;;;;;;1.48;1.38;;;22.00;51.40;;;;;;5049685;28;20036;-57
2023/01/07 01:31:29;;;;;;;1.20;1.10;;;22.00;51.40;;;;;;5082003;28;20048;-58
2023/01/07 01:33:56;;;;;;;1.30;1.20;;;22.00;51.40;;;;;;5052169;28;20131;-57
2023/01/07 01:36:22;;;;;;;1.15;1.10;;;22.00;51.50;;;;;;5081101;28;20052;-57
2023/01/07 01:38:48;;;;;;;1.20;1.10;;;21.90;51.50;;;;;;5052546;28;20057;-57
2023/01/07 01:41:15;;;;;;;1.35;1.20;;;21.90;51.50;;;;;;5038563;28;20033;-58
2023/01/07 01:43:43;;;;;;;1.23;1.13;;;21.90;51.50;;;;;;5059335;28;20029;-57
2023/01/07 01:46:11;;;;;;;1.10;1.00;;;21.90;52.20;;;;;;5050619;28;21671;-57
2023/01/07 01:48:42;;;;;;;1.00;1.00;;;21.90;51.60;;;;;;5052623;28;20550;-58
2023/01/07 01:51:09;;;;;;;1.27;1.10;;;21.90;51.50;;;;;;5052746;28;20497;-57
2023/01/07 01:53:36;;;;;;;1.20;1.10;;;21.90;51.60;;;;;;5051295;28;20451;-58
2023/01/07 01:56:11;;;;;;;1.00;0.90;;;21.90;51.70;;;;;;5052602;28;20067;-57
2023/01/07 01:58:42;;;;;;;1.02;1.00;;;21.90;51.70;;;;;;5052265;28;20052;-57
2023/01/07 02:01:08;;;;;;;1.00;1.00;;;21.90;51.80;;;;;;5052527;28;20109;-57
2023/01/07 02:03:36;;;;;;;0.95;0.95;;;21.80;51.70;;;;;;5052244;28;20094;-58
2023/01/07 02:06:03;;;;;;;0.93;0.90;;;21.80;51.70;;;;;;5050988;28;20037;-56
2023/01/07 02:08:29;;;;;;;0.90;0.90;;;21.80;51.70;;;;;;5051685;28;20127;-57
2023/01/07 02:11:21;;;;;;;1.58;1.33;;;21.80;51.80;;;;;;5086279;28;20777;-59
2023/01/07 02:14:00;;;;;;;1.45;1.10;;;21.80;51.80;;;;;;5051830;28;20101;-57
2023/01/07 02:17:00;;;;;;;0.90;0.90;;;21.80;51.80;;;;;;5052838;28;20244;-56
2023/01/07 02:19:59;;;;;;;1.03;0.97;;;21.80;51.80;;;;;;5053386;28;20056;-57
2023/01/07 02:22:25;;;;;;;1.00;1.00;;;21.70;51.80;;;;;;5051447;28;20135;-58
2023/01/07 02:25:22;;;;;;;1.10;1.00;;;21.70;51.90;;;;;;5051010;28;20066;-57
2023/01/07 02:28:06;;;;;;;0.75;0.70;;;21.70;51.80;;;;;;5081403;28;20056;-57
2023/01/07 02:30:50;;;;;;;1.15;0.98;;;21.70;51.90;;;;;;5083086;28;20136;-57
2023/01/07 02:33:21;;;;;;;1.23;1.13;;;21.70;51.90;;;;;;5051384;28;20048;-58
2023/01/07 02:36:01;;;;;;;0.70;0.70;;;21.70;52.00;;;;;;5052529;28;20068;-58
2023/01/07 02:38:33;;;;;;;1.05;0.90;;;21.70;52.70;;;;;;5065202;28;20504;-56
2023/01/07 02:41:13;;;;;;;0.63;0.60;;;21.70;52.10;;;;;;5052841;28;20539;-57
2023/01/07 02:44:11;;;;;;;0.88;0.88;;;21.60;52.00;;;;;;5082509;28;20087;-56
2023/01/07 02:46:45;;;;;;;0.85;0.85;;;21.60;52.00;;;;;;5050482;28;20479;-57
2023/01/07 02:49:14;;;;;;;0.70;0.70;;;21.60;52.00;;;;;;5051890;28;20078;-56
2023/01/07 02:51:41;;;;;;;1.23;0.80;;;21.60;52.10;;;;;;5048218;28;20059;-58
2023/01/07 02:54:11;;;;;;;1.05;0.93;;;21.60;52.10;;;;;;5069522;28;20053;-56
2023/01/07 02:56:51;;;;;;;0.87;0.80;;;21.60;52.80;;;;;;5050373;28;20056;-58
2023/01/07 02:59:39;;;;;;;0.70;0.70;;;21.60;52.00;;;;;;5050331;28;20040;-57
2023/01/07 03:02:10;;;;;;;0.82;0.82;;;21.60;52.10;;;;;;5050237;28;20044;-56
2023/01/07 03:04:37;;;;;;;0.75;0.73;;;21.50;52.10;;;;;;5055294;28;20384;-56
2023/01/07 03:07:27;;;;;;;0.80;0.80;;;21.50;52.10;;;;;;5079688;28;20056;-56
2023/01/07 03:10:28;;;;;;;1.15;1.05;;;21.50;52.00;;;;;;5051066;28;20040;-55
2023/01/07 03:13:09;;;;;;;0.95;0.85;;;21.50;52.10;;;;;;5049179;28;20085;-57
2023/01/07 03:15:47;;;;;;;0.90;0.90;;;21.50;52.20;;;;;;5049318;28;20501;-56
2023/01/07 03:18:18;;;;;;;1.60;0.77;;;21.50;52.20;;;;;;5048468;28;20044;-58
2023/01/07 03:20:47;;;;;;;1.15;1.05;;;21.50;52.20;;;;;;5051360;28;20047;-58
2023/01/07 03:23:15;;;;;;;1.10;1.00;;;21.50;52.20;;;;;;5050755;28;20044;-59
2023/01/07 03:25:44;;;;;;;0.90;0.90;;;21.50;52.20;;;;;;5020244;28;20442;-58
2023/01/07 03:28:11;;;;;;;1.38;0.70;;;21.40;52.10;;;;;;5051811;28;20090;-56
2023/01/07 03:30:37;;;;;;;0.73;0.73;;;21.40;52.10;;;;;;5050697;28;20045;-57
2023/01/07 03:33:06;;;;;;;0.80;0.80;;;21.40;52.10;;;;;;5050507;28;20500;-57
2023/01/07 03:35:33;;;;;;;0.82;0.73;;;21.40;52.20;;;;;;5050984;28;20063;-57
2023/01/07 03:38:02;;;;;;;1.00;0.90;;;21.40;52.10;;;;;;5050793;28;20039;-57
2023/01/07 03:40:28;;;;;;;0.80;0.77;;;21.40;52.20;;;;;;5054020;28;20127;-57
2023/01/07 03:42:53;;;;;;;0.98;0.98;;;21.40;52.30;;;;;;5051674;28;20048;-57
2023/01/07 03:45:21;;;;;;;0.63;0.63;;;21.30;52.10;;;;;;5051288;28;20036;-57
2023/01/07 03:47:50;;;;;;;1.23;0.80;;;21.40;52.30;;;;;;5050009;28;20041;-57
2023/01/07 03:50:16;;;;;;;0.90;0.85;;;21.40;52.30;;;;;;5052162;28;20044;-57
2023/01/07 03:52:42;;;;;;;0.75;0.75;;;21.40;52.30;;;;;;5052131;28;20111;-58
2023/01/07 03:55:09;;;;;;;0.85;0.85;;;21.40;52.30;;;;;;5034378;28;20125;-56
2023/01/07 03:57:35;;;;;;;0.77;0.77;;;21.40;52.30;;;;;;5047570;28;20668;-57
2023/01/07 04:00:01;;;;;;;0.70;0.70;;;21.30;52.20;;;;;;5050396;28;20041;-56
2023/01/07 04:02:27;;;;;;;0.98;0.90;;;21.30;52.30;;;;;;5080487;28;20053;-56
2023/01/07 04:04:52;;;;;;;0.70;0.70;;;21.30;52.20;;;;;;5051544;28;20068;-57
2023/01/07 04:07:18;;;;;;;0.93;0.80;;;21.30;52.30;;;;;;5049441;28;20075;-57
2023/01/07 04:09:46;;;;;;;0.98;0.88;;;21.30;52.30;;;;;;5049467;28;20056;-58
2023/01/07 04:12:12;;;;;;;0.90;0.90;;;21.30;52.30;;;;;;5048870;28;20140;-56
2023/01/07 04:14:38;;;;;;;0.80;0.80;;;21.30;52.40;;;;;;5050432;28;20063;-56
2023/01/07 04:17:04;;;;;;;1.02;0.93;;;21.30;52.40;;;;;;5082332;28;20049;-56
2023/01/07 04:19:29;;;;;;;0.80;0.80;;;21.20;52.30;;;;;;5083859;28;20037;-57
2023/01/07 04:21:55;;;;;;;0.80;0.70;;;21.20;52.30;;;;;;5049508;28;20036;-56
2023/01/07 04:24:21;;;;;;;0.90;0.90;;;21.20;52.40;;;;;;5047284;28;20061;-54
2023/01/07 04:26:46;;;;;;;1.75;0.90;;;21.20;52.50;;;;;;5047299;28;20060;-56
2023/01/07 04:29:12;;;;;;;1.13;0.98;;;21.20;52.40;;;;;;5049847;28;20037;-56
2023/01/07 04:31:38;;;;;;;0.80;0.80;;;21.20;52.40;;;;;;5050992;28;20048;-57
2023/01/07 04:34:04;;;;;;;0.60;0.60;;;21.20;52.40;;;;;;5052555;28;20044;-57
2023/01/07 04:36:29;;;;;;;0.73;0.73;;;21.20;52.40;;;;;;5048816;28;20076;-58
2023/01/07 04:38:55;;;;;;;0.70;0.70;;;21.10;52.40;;;;;;5082201;28;20107;-57
2023/01/07 04:41:21;;;;;;;0.60;0.60;;;21.10;52.40;;;;;;5048510;28;20509;-56
2023/01/07 04:43:46;;;;;;;1.00;0.90;;;21.10;52.40;;;;;;5050659;28;20037;-56
2023/01/07 04:46:12;;;;;;;0.85;0.85;;;21.10;52.50;;;;;;5078914;28;20112;-57
2023/01/07 04:48:38;;;;;;;0.82;0.82;;;21.10;52.50;;;;;;5050056;28;20069;-58
2023/01/07 04:51:04;;;;;;;0.60;0.60;;;21.10;52.50;;;;;;5048387;28;20033;-57
2023/01/07 04:53:30;;;;;;;0.90;0.82;;;21.10;52.50;;;;;;5076664;28;20048;-57
2023/01/07 04:55:55;;;;;;;2.25;0.80;;;21.10;52.50;;;;;;5049953;28;20071;-58
2023/01/07 04:58:21;;;;;;;1.17;0.80;;;21.10;52.50;;;;;;5050139;28;20041;-57
2023/01/07 05:00:47;;;;;;;1.63;0.70;;;21.50;52.00;;;;;;5049451;28;20089;-57
2023/01/07 05:03:12;;;;;;;0.85;0.80;;;22.20;50.70;;;;;;5049763;28;20123;-57
2023/01/07 05:05:38;;;;;;;1.38;0.77;;;22.90;49.30;;;;;;5048480;28;20745;-57
2023/01/07 05:08:04;;;;;;;1.25;0.73;;;23.50;48.10;;;;;;5051500;28;20052;-58
2023/01/07 05:10:31;;;;;;;1.40;0.70;;;24.00;47.00;;;;;;5054872;28;20041;-58
2023/01/07 05:12:57;;;;;;;2.83;0.60;;;24.30;46.40;;;;;;5054211;28;20174;-58
2023/01/07 05:15:23;;;;;;;1.55;0.50;;;24.30;46.10;;;;;;5053655;28;20629;-56
2023/01/07 05:17:48;;;;;;;0.75;0.57;;;24.20;46.10;;;;;;5053999;28;20555;-58
2023/01/07 05:20:14;;;;;;;0.80;0.60;;;24.10;46.30;;;;;;5055163;28;20041;-59
2023/01/07 05:22:40;;;;;;;0.63;0.63;;;24.00;46.60;;;;;;5050766;28;20044;-58
2023/01/07 05:25:06;;;;;;;0.70;0.70;;;23.80;46.80;;;;;;5054154;28;20040;-58
2023/01/07 05:27:31;;;;;;;0.50;0.50;;;23.70;47.00;;;;;;5052015;28;20037;-59
2023/01/07 05:29:57;;;;;;;1.00;0.60;;;23.60;47.30;;;;;;5054950;28;20055;-57
2023/01/07 05:32:22;;;;;;;0.47;0.43;;;23.40;47.60;;;;;;5050009;28;20048;-57
2023/01/07 05:34:48;;;;;;;0.88;0.60;;;23.30;47.80;;;;;;5055597;28;20048;-56
2023/01/07 05:37:14;;;;;;;2.17;0.90;;;23.10;48.10;;;;;;5051406;28;20080;-56
2023/01/07 05:39:39;;;;;;;3.70;0.80;;;23.10;48.40;;;;;;5053087;28;20041;-57
2023/01/07 05:42:05;;;;;;;1.13;0.65;;;23.00;48.60;;;;;;5051123;28;20107;-57
2023/01/07 05:44:31;;;;;;;1.50;0.73;;;22.90;48.70;;;;;;5066866;28;20056;-59
2023/01/07 05:46:56;;;;;;;1.85;0.63;;;22.80;48.80;;;;;;5054399;28;20116;-58
2023/01/07 05:49:22;;;;;;;0.70;0.60;;;22.80;48.80;;;;;;5052916;28;20051;-57
2023/01/07 05:51:48;;;;;;;0.95;0.70;;;22.80;48.90;;;;;;5036543;28;20081;-58
2023/01/07 05:54:13;;;;;;;1.00;0.80;;;22.80;48.90;;;;;;5084025;28;20048;-59
2023/01/07 05:56:39;;;;;;;5.05;0.80;;;22.80;49.00;;;;;;5051098;28;20046;-58
2023/01/07 05:59:05;;;;;;;1.20;0.60;;;22.80;49.00;;;;;;5053840;28;20124;-59
2023/01/07 06:01:30;;;;;;;1.15;0.70;;;22.70;49.00;;;;;;5051500;28;20087;-59
2023/01/07 06:03:56;;;;;;;3.22;0.77;;;22.80;49.30;;;;;;5050918;28;20037;-58
2023/01/07 06:06:22;;;;;;;0.60;0.60;;;22.70;49.20;;;;;;5050049;28;20105;-57
2023/01/07 06:08:48;;;;;;;1.88;0.73;;;22.70;49.20;;;;;;5052711;28;20048;-57
2023/01/07 06:11:14;;;;;;;1.83;0.70;;;22.80;49.30;;;;;;5051064;28;21160;-57
2023/01/07 06:13:40;;;;;;;1.65;0.93;;;22.80;49.30;;;;;;5051057;28;20121;-58
2023/01/07 06:16:08;;;;;;;3.67;0.60;;;22.70;49.20;;;;;;5050528;28;20037;-57
2023/01/07 06:18:34;;;;;;;2.05;0.90;;;22.70;49.20;;;;;;5049615;28;20164;-58
2023/01/07 06:21:00;;;;;;;1.02;0.82;;;22.70;49.20;;;;;;5043300;28;20171;-59
2023/01/07 06:23:26;;;;;;;1.65;0.70;;;22.70;49.20;;;;;;5052031;28;20072;-57
2023/01/07 06:25:51;;;;;;;1.45;0.50;;;22.70;49.10;;;;;;5050518;28;20139;-58
2023/01/07 06:28:17;;;;;;;0.68;0.68;;;22.70;49.10;;;;;;5051731;28;20549;-57
2023/01/07 06:30:46;;;;;;;0.98;0.70;;;22.70;49.10;;;;;;5038165;28;20049;-58
2023/01/07 06:33:13;;;;;;;0.70;0.70;;;22.80;49.80;;;;;;5052801;28;20041;-57
2023/01/07 06:35:39;;;;;;;1.30;0.63;;;22.80;49.10;;;;;;5051438;28;20110;-56
2023/01/07 06:38:05;;;;;;;1.40;0.63;;;22.80;49.00;;;;;;5082699;28;20041;-58
2023/01/07 06:40:31;;;;;;;1.45;0.70;;;22.80;49.10;;;;;;5053174;28;20130;-59
2023/01/07 06:42:57;;;;;;;0.50;0.50;;;22.70;48.90;;;;;;5051400;28;20052;-59
2023/01/07 06:45:23;;;;;;;1.10;0.82;;;22.80;49.00;;;;;;5052138;28;20025;-57
2023/01/07 06:47:48;;;;;;;0.95;0.68;;;22.80;49.00;;;;;;5051805;28;20080;-58
2023/01/07 06:50:15;;;;;;;0.65;0.55;;;22.80;49.00;;;;;;5054574;28;20118;-58
2023/01/07 06:52:41;;;;;;;1.13;0.70;;;22.80;48.90;;;;;;5050448;28;20071;-56
2023/01/07 06:55:07;;;;;;;0.68;0.65;;;22.70;48.90;;;;;;5051669;28;20044;-57
2023/01/07 06:57:33;;;;;;;2.25;0.80;;;22.80;48.90;;;;;;5081698;28;20564;-57
2023/01/07 06:59:58;;;;;;;1.27;0.60;;;22.80;48.90;;;;;;5051218;28;20079;-57
2023/01/07 07:02:26;;;;;;;0.50;0.50;;;22.80;48.90;;;;;;5082963;28;20091;-57
2023/01/07 07:04:53;;;;;;;1.02;0.68;;;22.80;48.80;;;;;;5052657;28;20091;-57
2023/01/07 07:07:19;;;;;;;1.55;0.60;;;22.70;48.80;;;;;;5048911;28;20703;-56
2023/01/07 07:09:45;;;;;;;0.80;0.70;;;22.70;48.80;;;;;;5052423;28;20048;-57
2023/01/07 07:12:11;;;;;;;1.42;0.40;;;22.80;48.90;;;;;;5053069;28;20140;-57
2023/01/07 07:14:37;;;;;;;1.63;0.70;;;22.70;48.70;;;;;;5049200;28;20069;-56
2023/01/07 07:17:04;;;;;;;1.50;0.40;;;22.70;48.70;;;;;;5074979;28;20649;-56
2023/01/07 07:19:29;;;;;;;0.70;0.70;;;22.80;48.80;;;;;;5050221;28;20050;-57
2023/01/07 07:21:56;;;;;;;1.23;0.50;;;22.80;48.70;;;;;;5041549;28;20049;-58
2023/01/07 07:24:21;;;;;;;0.50;0.50;;;22.80;48.70;;;;;;5049755;28;20059;-58
2023/01/07 07:26:48;;;;;;;1.00;0.70;;;22.80;48.70;;;;;;5052004;28;20056;-57
2023/01/07 07:29:13;;;;;;;1.58;0.70;;;22.80;48.60;;;;;;5050058;28;20037;-59
2023/01/07 07:31:39;;;;;;;1.45;0.55;;;22.80;48.60;;;;;;5050191;28;20047;-57
2023/01/07 07:34:05;;;;;;;1.30;0.63;;;22.70;48.60;;;;;;5081330;28;20152;-58
2023/01/07 07:36:31;;;;;;;1.63;0.68;;;22.80;48.80;;;;;;5047085;28;20047;-57
2023/01/07 07:38:57;;;;;;;1.00;0.70;;;22.70;48.80;;;;;;5048629;28;20059;-57
2023/01/07 07:41:22;;;;;;;1.55;0.60;;;22.70;48.80;;;;;;5048193;28;20052;-57
2023/01/07 07:43:48;;;;;;;1.30;0.55;;;22.70;48.80;;;;;;5080327;28;20139;-57
2023/01/07 07:46:14;;;;;;;3.72;0.73;;;22.70;48.80;;;;;;5049411;28;20501;-57
2023/01/07 07:48:40;;;;;;;1.35;0.70;;;22.70;48.90;;;;;;5050953;28;20111;-57
2023/01/07 07:51:05;;;;;;;8.50;0.70;;;22.70;49.10;;;;;;5050444;28;20037;-59
2023/01/07 07:53:31;;;;;;;8.07;1.17;;;22.70;49.30;;;;;;5045506;28;20475;-57
2023/01/07 07:55:57;;;;;;;2.10;0.70;;;22.70;49.40;;;;;;5047700;28;20043;-59
2023/01/07 07:58:22;;;;;;;4.38;0.82;;;22.70;49.60;;;;;;5053943;28;20079;-57
2023/01/07 08:00:48;;;;;;;1.90;0.70;;;22.60;49.70;;;;;;5049060;28;20167;-56
2023/01/07 08:03:14;;;;;;;5.10;0.82;;;22.60;49.90;;;;;;5051589;28;20040;-61
2023/01/07 08:05:41;;;;;;;2.22;0.82;;;22.60;49.90;;;;;;5049737;28;20083;-54
2023/01/07 08:08:08;;;;;;;2.28;0.60;;;22.60;50.00;;;;;;5049737;28;20048;-56
2023/01/07 08:10:34;;;;;;;1.13;0.75;;;22.60;50.20;;;;;;5050327;28;20072;-60
2023/01/07 08:13:00;;;;;;;1.63;0.90;;;22.60;50.30;;;;;;5048156;28;20114;-58
2023/01/07 08:15:26;;;;;;;1.95;0.70;;;22.60;51.10;;;;;;5050080;28;20033;-56
2023/01/07 08:17:59;;;;;;;2.72;1.00;;;22.60;50.50;;;;;;5047463;28;20068;-58
2023/01/07 08:20:25;;;;;;;1.73;0.80;;;22.60;50.60;;;;;;5049509;28;20048;-57
2023/01/07 08:22:50;;;;;;;2.45;0.70;;;22.60;50.60;;;;;;5049666;28;20037;-55
2023/01/07 08:25:16;;;;;;;1.15;0.70;;;22.60;50.60;;;;;;5048879;28;20091;-57
2023/01/07 08:27:42;;;;;;;1.38;0.80;;;22.60;50.60;;;;;;5046086;28;20397;-56
2023/01/07 08:30:08;;;;;;;1.17;0.60;;;22.60;50.60;;;;;;5049199;28;20142;-56
2023/01/07 08:32:35;;;;;;;1.80;0.75;;;22.60;50.60;;;;;;5048927;28;20596;-56
2023/01/07 08:35:00;;;;;;;2.60;0.90;;;22.60;50.60;;;;;;5048978;28;20478;-56
2023/01/07 08:37:28;;;;;;;2.25;0.95;;;22.50;50.80;;;;;;5048080;28;20037;-56
2023/01/07 08:39:54;;;;;;;2.65;0.85;;;22.50;51.00;;;;;;5050275;28;20473;-56
2023/01/07 08:42:20;;;;;;;2.15;0.88;;;22.50;51.20;;;;;;5051579;28;20127;-56
2023/01/07 08:44:45;;;;;;;2.50;0.90;;;22.50;51.30;;;;;;5054644;28;20074;-56
2023/01/07 08:47:11;;;;;;;2.50;0.70;;;22.50;51.40;;;;;;5054537;28;20048;-56
2023/01/07 08:49:36;;;;;;;2.58;0.55;;;22.50;51.50;;;;;;5053673;28;20041;-57
2023/01/07 08:52:02;;;;;;;4.65;0.82;;;22.60;51.40;;;;;;5053733;28;20350;-56
2023/01/07 08:54:28;;;;;;;2.13;0.80;;;22.60;51.40;;;;;;5036541;28;20051;-57
2023/01/07 08:56:53;;;;;;;1.23;0.70;;;22.60;51.40;;;;;;5051841;28;20121;-57
2023/01/07 08:59:19;;;;;;;1.10;0.68;;;22.60;51.40;;;;;;5052257;28;20098;-56
2023/01/07 09:01:45;;;;;;;1.25;0.80;;;22.60;51.40;;;;;;5052924;28;20545;-57
2023/01/07 09:04:10;;;;;;;3.28;1.05;;;22.60;51.50;;;;;;5054267;28;20118;-56
2023/01/07 09:06:36;;;;;;;3.25;0.80;;;22.60;51.30;;;;;;5052016;28;20558;-56
2023/01/07 09:09:02;;;;;;;1.65;0.75;;;22.60;51.30;;;;;;5053027;28;20037;-58
2023/01/07 09:11:27;;;;;;;0.82;0.60;;;22.60;51.30;;;;;;5052599;28;20051;-57
2023/01/07 09:13:53;;;;;;;0.95;0.60;;;22.60;51.30;;;;;;5055458;28;20128;-58
2023/01/07 09:16:19;;;;;;;4.53;0.75;;;22.60;51.30;;;;;;5043802;28;20080;-59
2023/01/07 09:18:44;;;;;;;3.58;1.20;;;22.60;51.30;;;;;;5054016;28;20083;-57
2023/01/07 09:21:10;;;;;;;1.10;0.70;;;22.60;51.30;;;;;;5053954;28;20041;-57
2023/01/07 09:23:36;;;;;;;1.85;0.88;;;22.60;51.30;;;;;;5053370;28;20090;-59
2023/01/07 09:26:02;;;;;;;4.13;0.85;;;22.60;51.30;;;;;;5050929;28;20195;-59
2023/01/07 09:28:27;;;;;;;1.25;0.75;;;22.60;51.50;;;;;;5051682;28;20072;-57
2023/01/07 09:30:53;;;;;;;3.33;0.70;;;22.50;51.80;;;;;;5019268;28;20128;-58
2023/01/07 09:33:19;;;;;;;1.45;0.90;;;22.50;52.00;;;;;;5052769;28;20067;-57
2023/01/07 09:35:45;;;;;;;3.40;0.80;;;22.50;52.00;;;;;;5052829;28;20075;-56
2023/01/07 09:38:11;;;;;;;1.58;0.80;;;22.50;52.00;;;;;;5050930;28;20075;-57
2023/01/07 09:40:38;;;;;;;1.45;0.80;;;22.50;52.00;;;;;;5052314;28;20078;-57
2023/01/07 09:43:16;;;;;;;1.88;0.60;;;22.50;52.20;;;;;;5051358;28;20053;-58
2023/01/07 09:45:49;;;;;;;1.20;0.88;;;22.60;52.00;;;;;;5047391;28;20037;-57
2023/01/07 09:48:23;;;;;;;2.47;0.90;;;22.60;52.00;;;;;;5050341;28;20051;-57
2023/01/07 09:50:51;;;;;;;2.83;0.77;;;22.60;51.90;;;;;;5059628;28;20052;-57
2023/01/07 09:53:26;;;;;;;3.05;0.80;;;22.60;51.80;;;;;;5052343;28;20061;-57
2023/01/07 09:55:53;;;;;;;4.07;1.00;;;22.60;51.70;;;;;;5051199;28;20044;-57
2023/01/07 09:58:20;;;;;;;1.67;0.70;;;22.60;51.60;;;;;;5049845;28;20127;-57
2023/01/07 10:01:16;;;;;;;3.10;0.80;;;22.60;51.80;;;;;;5049041;28;20060;-57
2023/01/07 10:04:09;;;;;;;2.85;0.88;;;22.50;52.20;;;;;;5042913;28;20044;-56
2023/01/07 10:07:19;;;;;;;2.40;0.85;;;22.50;52.40;;;;;;5050860;28;20381;-58
2023/01/07 10:09:55;;;;;;;2.42;0.80;;;22.50;52.60;;;;;;5052113;28;20508;-56
2023/01/07 10:12:52;;;;;;;5.22;0.82;;;22.50;52.70;;;;;;5048745;28;20057;-56
2023/01/07 10:15:36;;;;;;;2.85;1.20;;;22.50;52.50;;;;;;5038048;28;20599;-56
2023/01/07 10:18:03;;;;;;;2.55;0.60;;;22.50;52.50;;;;;;5051039;28;20397;-57
2023/01/07 10:20:50;;;;;;;2.70;1.05;;;22.60;52.40;;;;;;5051545;28;20059;-57
2023/01/07 10:23:27;;;;;;;0.95;0.75;;;22.60;52.40;;;;;;5068694;28;20140;-58
2023/01/07 10:25:58;;;;;;;2.85;0.73;;;22.60;52.30;;;;;;5082365;28;20065;-57
2023/01/07 10:28:30;;;;;;;5.63;0.95;;;22.60;52.30;;;;;;5066087;28;20471;-56
2023/01/07 10:30:57;;;;;;;2.75;0.85;;;22.60;52.10;;;;;;5049740;28;20052;-58
2023/01/07 10:33:28;;;;;;;7.28;0.82;;;22.60;51.90;;;;;;5047756;28;20683;-58
2023/01/07 10:36:00;;;;;;;3.88;0.90;;;22.50;52.10;;;;;;5050677;28;20045;-57
2023/01/07 10:38:29;;;;;;;4.55;0.88;;;22.50;52.40;;;;;;5050762;28;20135;-56
2023/01/07 10:41:02;;;;;;;4.22;0.73;;;22.40;52.30;;;;;;5067357;28;20191;-56
2023/01/07 10:43:48;;;;;;;3.88;0.90;;;22.50;52.30;;;;;;5051605;28;20057;-56
2023/01/07 10:46:38;;;;;;;3.05;0.73;;;22.40;52.20;;;;;;5052271;28;20040;-57
2023/01/07 10:49:19;;;;;;;3.92;1.05;;;22.30;52.50;;;;;;5049670;28;20420;-57
2023/01/07 10:51:54;;;;;;;;;;;22.20;53.40;;;;;;5049791;28;20123;-57
2023/01/07 10:54:34;;;;;;;2.67;0.60;;;22.00;52.90;;;;;;5050406;28;19935;-57
2023/01/07 10:57:12;;;;;;;5.28;0.60;;;21.90;53.20;;;;;;5051856;28;20037;-56
2023/01/07 10:59:41;;;;;;;3.53;0.70;;;21.90;53.50;;;;;;5050540;28;20102;-57
2023/01/07 11:02:16;;;;;;;3.35;0.80;;;21.80;53.50;;;;;;5051268;28;20272;-57
2023/01/07 11:04:41;;;;;;;7.07;0.80;;;21.70;53.40;;;;;;5035053;28;20166;-56
2023/01/07 11:07:21;;;;;;;2.65;0.68;;;21.70;53.60;;;;;;5050523;28;20048;-57
2023/01/07 11:09:47;;;;;;;5.68;1.30;;;21.60;53.70;;;;;;5050127;28;20048;-57
2023/01/07 11:12:35;;;;;;;3.80;0.68;;;21.60;54.00;;;;;;5034895;28;20376;-56
2023/01/07 11:15:12;;;;;;;1.73;0.80;;;21.50;54.10;;;;;;5053474;28;20040;-56
2023/01/07 11:17:52;;;;;;;3.05;0.68;;;21.50;54.10;;;;;;5050988;28;20056;-57
2023/01/07 11:20:41;;;;;;;2.35;1.10;;;21.50;54.10;;;;;;5049825;28;20055;-58
2023/01/07 11:23:28;;;;;;;2.80;1.27;;;21.40;54.50;;;;;;5045045;28;20056;-57
2023/01/07 11:26:04;;;;;;;3.65;0.93;;;21.50;54.40;;;;;;5047721;28;20551;-56
2023/01/07 11:28:32;;;;;;;3.38;1.40;;;21.70;54.10;;;;;;5051962;28;20052;-56
2023/01/07 11:30:59;;;;;;;2.05;0.90;;;21.80;53.80;;;;;;5049435;28;20049;-56
2023/01/07 11:33:34;;;;;;;3.10;0.90;;;22.00;53.50;;;;;;5051182;28;20511;-56
2023/01/07 11:36:00;;;;;;;4.03;0.90;;;22.10;53.20;;;;;;5050431;28;20048;-58
2023/01/07 11:38:35;;;;;;;3.85;0.93;;;22.20;53.00;;;;;;5078521;28;20519;-57
2023/01/07 11:41:03;;;;;;;4.05;1.10;;;22.30;52.90;;;;;;5048835;28;20155;-55
2023/01/07 11:43:34;;;;;;;2.67;0.82;;;22.30;53.00;;;;;;5050530;28;20040;-56
2023/01/07 11:46:03;;;;;;;1.98;1.08;;;22.30;53.10;;;;;;5049585;28;20128;-55
2023/01/07 11:48:35;;;;;;;3.40;1.02;;;22.40;53.00;;;;;;5048704;28;20047;-55
2023/01/07 11:51:05;;;;;;;2.78;0.70;;;22.40;52.70;;;;;;5048881;28;20045;-56
2023/01/07 11:53:38;;;;;;;3.28;0.88;;;22.40;52.70;;;;;;5049132;28;20151;-56
2023/01/07 11:56:11;;;;;;;2.03;1.13;;;22.40;52.80;;;;;;5051466;28;20123;-56
2023/01/07 11:58:38;;;;;;;3.55;0.75;;;22.40;52.90;;;;;;5049943;28;20315;-58
2023/01/07 12:01:07;;;;;;;3.08;0.80;;;22.50;52.80;;;;;;5049274;28;20059;-56
2023/01/07 12:03:34;;;;;;;3.45;1.10;;;22.50;52.50;;;;;;5047833;28;20052;-56
2023/01/07 12:06:14;;;;;;;2.03;0.80;;;22.50;52.40;;;;;;5049041;28;20996;-57
2023/01/07 12:08:48;;;;;;;6.95;1.30;;;22.40;52.30;;;;;;5050734;28;20055;-56
2023/01/07 12:11:14;;;;;;;3.92;1.00;;;22.40;52.70;;;;;;5048331;28;20129;-56
2023/01/07 12:13:47;;;;;;;1.63;0.70;;;22.40;52.80;;;;;;5048792;28;20106;-56
2023/01/07 12:16:12;;;;;;;2.85;0.90;;;22.50;52.50;;;;;;5048319;28;20036;-56
2023/01/07 12:19:17;;;;;;;2.10;0.80;;;22.50;52.60;;;;;;5049845;28;20040;-56
2023/01/07 12:22:01;;;;;;;6.97;0.93;;;22.50;53.10;;;;;;5041654;28;20140;-56
2023/01/07 12:24:56;;;;;;;3.47;0.85;;;22.50;53.30;;;;;;5046778;28;20059;-56
2023/01/07 12:27:35;;;;;;;5.88;0.90;;;22.60;53.20;;;;;;5045399;28;20119;-58
2023/01/07 12:30:19;;;;;;;8.20;1.30;;;22.50;53.20;;;;;;5046872;28;20044;-54
2023/01/07 12:32:50;;;;;;;3.78;0.90;;;22.40;53.50;;;;;;5057244;28;20046;-58
2023/01/07 12:35:30;;;;;;;2.53;0.70;;;22.40;53.40;;;;;;5078393;28;20048;-55
2023/01/07 12:38:09;;;;;;;2.03;0.98;;;22.60;53.40;;;;;;5044956;28;20044;-57
2023/01/07 12:40:42;;;;;;;3.42;0.80;;;22.60;53.10;;;;;;5027718;28;20063;-56
2023/01/07 12:43:20;;;;;;;7.03;0.80;;;22.50;53.10;;;;;;5046242;28;20037;-56
2023/01/07 12:45:48;;;;;;;2.67;0.90;;;22.40;53.10;;;;;;5046105;28;20054;-56
2023/01/07 12:48:46;;;;;;;5.97;1.10;;;22.50;53.10;;;;;;5075801;28;20051;-57
2023/01/07 12:51:25;;;;;;;1.67;1.00;;;22.50;52.90;;;;;;5046081;28;20048;-56
2023/01/07 12:54:00;;;;;;;5.30;1.05;;;22.50;52.80;;;;;;5051792;28;20056;-56
2023/01/07 12:56:39;;;;;;;2.67;0.80;;;22.50;52.90;;;;;;5049929;28;20131;-57
2023/01/07 12:59:34;;;;;;;2.95;0.90;;;22.50;52.90;;;;;;5049834;28;20392;-56
2023/01/07 13:02:31;;;;;;;3.53;0.90;;;22.50;52.80;;;;;;5048873;28;20393;-56